Time;durP1;ratioP1;P1;durP2;ratioP2;P2;SDS_P1;SDS_P2;PMS_P1;PMS_P2;Temp;Humidity;BMP_temperature;BMP_pressure;BME280_temperature;BME280_humidity;BME280_pressure;Samples;Min_cycle;Max_cycle;Signal;HPM_P1;HPM_P2
2021/12/23 00:01:55;;;;;;;48.47;27.13;;;;;;;;;;4980910;28;20459;-83
2021/12/23 00:04:21;;;;;;;40.90;23.60;;;;;;;;;;4979474;28;20475;-84
2021/12/23 00:06:47;;;;;;;45.40;25.10;;;;;;;;;;4982294;28;20479;-85
2021/12/23 00:09:14;;;;;;;41.40;25.30;;;;;;;;;;4979642;28;20467;-84
2021/12/23 00:11:40;;;;;;;46.07;23.90;;;;;;;;;;4982420;28;20857;-84
2021/12/23 00:14:08;;;;;;;39.10;22.70;;;;;;;;;;4982308;28;20475;-83
2021/12/23 00:16:43;;;;;;;38.87;23.97;;;;;;;;;;4982003;28;20851;-85
2021/12/23 00:19:19;;;;;;;41.13;24.60;;;;;;;;;;4978057;28;20851;-81
2021/12/23 00:24:29;;;;;;;34.90;21.17;;;;;;;;;;4978856;28;20502;-84
2021/12/23 00:26:56;;;;;;;40.47;22.90;;;;;;;;;;4982615;28;20499;-83
2021/12/23 00:29:22;;;;;;;43.43;23.97;;;;;;;;;;4980194;28;20479;-84
2021/12/23 00:31:50;;;;;;;37.03;22.17;;;;;;;;;;4981438;28;20889;-83
2021/12/23 00:34:16;;;;;;;38.37;22.33;;;;;;;;;;4995305;28;20470;-83
2021/12/23 00:36:45;;;;;;;43.33;22.03;;;;;;;;;;4998574;28;20473;-83
2021/12/23 00:39:12;;;;;;;35.43;22.30;;;;;;;;;;4995199;28;20470;-83
2021/12/23 00:41:41;;;;;;;37.10;20.87;;;;;;;;;;4998598;28;20450;-83
2021/12/23 00:44:07;;;;;;;56.43;23.33;;;;;;;;;;4997722;28;20474;-85
2021/12/23 00:46:34;;;;;;;37.10;21.57;;;;;;;;;;5000991;28;20498;-84
2021/12/23 00:49:01;;;;;;;35.67;21.30;;;;;;;;;;4998233;28;20474;-84
2021/12/23 00:51:29;;;;;;;35.53;22.20;;;;;;;;;;4999677;28;20462;-82
2021/12/23 00:54:04;;;;;;;40.23;21.90;;;;;;;;;;4995863;28;20478;-82
2021/12/23 00:56:30;;;;;;;34.53;21.20;;;;;;;;;;4999949;28;20547;-85
2021/12/23 00:58:56;;;;;;;37.97;21.33;;;;;;;;;;4997765;28;20466;-85
2021/12/23 01:01:22;;;;;;;34.50;21.13;;;;;;;;;;4997007;28;21119;-84
2021/12/23 01:03:49;;;;;;;38.57;21.27;;;;;;;;;;4998605;28;20486;-83
2021/12/23 01:06:16;;;;;;;30.83;19.50;;;;;;;;;;4999398;28;21000;-84
2021/12/23 01:08:42;;;;;;;38.90;22.93;;;;;;;;;;4997767;28;20510;-83
2021/12/23 01:11:09;;;;;;;35.07;21.50;;;;;;;;;;4998435;28;20463;-82
2021/12/23 01:13:37;;;;;;;38.23;21.53;;;;;;;;;;5000909;28;20466;-85
2021/12/23 01:16:06;;;;;;;37.77;22.17;;;;;;;;;;4998733;28;20458;-84
2021/12/23 01:18:37;;;;;;;34.77;20.97;;;;;;;;;;4998455;28;20470;-83
2021/12/23 01:21:14;;;;;;;36.93;20.53;;;;;;;;;;4997745;28;20558;-85
2021/12/23 01:23:43;;;;;;;32.40;20.83;;;;;;;;;;4998407;28;20526;-83
2021/12/23 01:26:10;;;;;;;36.70;21.57;;;;;;;;;;4998705;28;20454;-84
2021/12/23 01:28:36;;;;;;;36.33;21.30;;;;;;;;;;4997080;28;20462;-86
2021/12/23 01:31:02;;;;;;;35.67;22.47;;;;;;;;;;4997191;28;20535;-84
2021/12/23 01:33:29;;;;;;;33.30;20.80;;;;;;;;;;5000222;28;20474;-82
2021/12/23 01:35:55;;;;;;;32.17;21.27;;;;;;;;;;4999205;28;20473;-82
2021/12/23 01:38:21;;;;;;;38.23;21.43;;;;;;;;;;4999196;28;20559;-84
2021/12/23 01:40:49;;;;;;;37.20;21.47;;;;;;;;;;4995741;28;20910;-82
2021/12/23 01:43:17;;;;;;;39.00;24.40;;;;;;;;;;4998827;28;20469;-82
2021/12/23 01:45:44;;;;;;;30.37;19.57;;;;;;;;;;4995675;28;20482;-83
2021/12/23 01:48:10;;;;;;;35.90;20.77;;;;;;;;;;4997532;28;20860;-81
2021/12/23 01:50:37;;;;;;;32.40;20.63;;;;;;;;;;4996253;28;20494;-84
2021/12/23 01:53:04;;;;;;;36.80;21.47;;;;;;;;;;5000533;28;20476;-84
2021/12/23 01:55:30;;;;;;;38.87;23.37;;;;;;;;;;4998494;28;20482;-81
2021/12/23 01:57:58;;;;;;;35.77;20.40;;;;;;;;;;4999411;28;20882;-82
2021/12/23 02:00:26;;;;;;;38.47;20.30;;;;;;;;;;4996145;28;20496;-85
2021/12/23 02:02:53;;;;;;;37.10;23.43;;;;;;;;;;4997212;28;20499;-84
2021/12/23 02:05:20;;;;;;;34.07;20.10;;;;;;;;;;4998515;27;20481;-82
2021/12/23 02:07:46;;;;;;;31.47;19.77;;;;;;;;;;4999309;28;20458;-82
2021/12/23 02:10:13;;;;;;;34.50;19.50;;;;;;;;;;4997535;28;20495;-82
2021/12/23 02:12:42;;;;;;;42.83;20.33;;;;;;;;;;4997766;28;20467;-83
2021/12/23 02:15:10;;;;;;;35.53;23.37;;;;;;;;;;4998663;28;20534;-83
2021/12/23 02:17:37;;;;;;;38.57;22.47;;;;;;;;;;4994601;28;20499;-83
2021/12/23 02:20:05;;;;;;;34.10;20.63;;;;;;;;;;4996175;28;20523;-82
2021/12/23 02:22:32;;;;;;;36.43;23.13;;;;;;;;;;4996866;28;21159;-83
2021/12/23 02:24:58;;;;;;;36.40;22.20;;;;;;;;;;4998928;28;20999;-82
2021/12/23 02:27:24;;;;;;;38.97;23.27;;;;;;;;;;4999020;28;21100;-83
2021/12/23 02:29:50;;;;;;;33.50;20.60;;;;;;;;;;4998290;28;20870;-84
2021/12/23 02:32:17;;;;;;;35.20;21.60;;;;;;;;;;4998682;28;20456;-84
2021/12/23 02:34:44;;;;;;;43.77;23.20;;;;;;;;;;4997828;28;20474;-82
2021/12/23 02:37:13;;;;;;;33.23;20.20;;;;;;;;;;4998976;28;20453;-84
2021/12/23 02:39:40;;;;;;;42.70;23.73;;;;;;;;;;4997078;28;20462;-84
2021/12/23 02:42:07;;;;;;;36.73;22.27;;;;;;;;;;4999822;28;20499;-84
2021/12/23 02:44:33;;;;;;;34.53;20.83;;;;;;;;;;4998338;28;20530;-84
2021/12/23 02:46:59;;;;;;;33.63;20.73;;;;;;;;;;4998509;28;20447;-82
2021/12/23 02:49:25;;;;;;;35.17;20.77;;;;;;;;;;4995609;28;20474;-83
2021/12/23 02:51:52;;;;;;;35.10;21.63;;;;;;;;;;4998595;28;20466;-82
2021/12/23 02:54:20;;;;;;;34.67;21.77;;;;;;;;;;4997441;28;21081;-83
2021/12/23 02:56:46;;;;;;;41.07;22.50;;;;;;;;;;4998233;28;20458;-83
2021/12/23 02:59:12;;;;;;;34.90;20.90;;;;;;;;;;4998258;28;21204;-81
2021/12/23 03:01:39;;;;;;;34.10;21.70;;;;;;;;;;4999438;28;20446;-83
2021/12/23 03:04:05;;;;;;;35.07;21.67;;;;;;;;;;5000998;28;20534;-83
2021/12/23 03:06:31;;;;;;;34.93;22.50;;;;;;;;;;5002819;28;20456;-83
2021/12/23 03:08:59;;;;;;;41.80;22.00;;;;;;;;;;4999916;28;20478;-82
2021/12/23 03:11:29;;;;;;;35.50;22.97;;;;;;;;;;4999109;28;21032;-82
2021/12/23 03:13:56;;;;;;;35.80;21.27;;;;;;;;;;5001865;28;20478;-83
2021/12/23 03:16:23;;;;;;;36.53;21.67;;;;;;;;;;5003406;28;20462;-81
2021/12/23 03:18:50;;;;;;;35.90;20.57;;;;;;;;;;5001347;28;20506;-83
2021/12/23 03:21:17;;;;;;;31.70;20.30;;;;;;;;;;5001037;28;20466;-82
2021/12/23 03:23:43;;;;;;;38.00;22.07;;;;;;;;;;5000775;28;20987;-82
2021/12/23 03:26:10;;;;;;;32.43;21.00;;;;;;;;;;5000516;28;20467;-82
2021/12/23 03:28:37;;;;;;;39.83;21.73;;;;;;;;;;5002455;28;20450;-82
2021/12/23 03:31:04;;;;;;;36.63;22.37;;;;;;;;;;4998313;28;21571;-84
2021/12/23 03:33:30;;;;;;;36.93;21.23;;;;;;;;;;4998920;28;20497;-81
2021/12/23 03:35:56;;;;;;;37.77;23.50;;;;;;;;;;4999500;28;20463;-81
2021/12/23 03:38:23;;;;;;;35.90;22.20;;;;;;;;;;5001523;28;20441;-82
2021/12/23 03:40:50;;;;;;;41.60;21.87;;;;;;;;;;5000128;28;20471;-82
2021/12/23 03:43:17;;;;;;;40.50;22.57;;;;;;;;;;5000097;28;20552;-82
2021/12/23 03:45:45;;;;;;;35.90;21.67;;;;;;;;;;5000492;28;21019;-84
2021/12/23 03:48:11;;;;;;;40.40;23.20;;;;;;;;;;4998963;28;20457;-82
2021/12/23 03:50:38;;;;;;;41.17;23.20;;;;;;;;;;4997934;28;20492;-84
2021/12/23 03:53:04;;;;;;;48.13;25.93;;;;;;;;;;5001244;28;20474;-83
2021/12/23 03:55:31;;;;;;;40.47;24.77;;;;;;;;;;4998804;28;20474;-84
2021/12/23 03:57:57;;;;;;;46.03;24.70;;;;;;;;;;4999686;28;20458;-82
2021/12/23 04:00:24;;;;;;;38.73;22.97;;;;;;;;;;5000530;28;20466;-81
2021/12/23 04:02:52;;;;;;;40.80;24.60;;;;;;;;;;5001687;28;20501;-83
2021/12/23 04:05:19;;;;;;;40.17;24.87;;;;;;;;;;4997680;28;20482;-84
2021/12/23 04:07:45;;;;;;;44.03;23.53;;;;;;;;;;4999468;28;20455;-83
2021/12/23 04:10:14;;;;;;;35.67;24.10;;;;;;;;;;4999576;28;20488;-83
2021/12/23 04:12:42;;;;;;;36.47;23.00;;;;;;;;;;5001216;28;20486;-81
2021/12/23 04:15:09;;;;;;;35.00;20.60;;;;;;;;;;5000773;28;20504;-82
2021/12/23 04:17:35;;;;;;;36.67;21.17;;;;;;;;;;5001543;28;20458;-84
2021/12/23 04:20:14;;;;;;;39.10;23.90;;;;;;;;;;4999096;28;20489;-82
2021/12/23 04:22:41;;;;;;;36.10;21.90;;;;;;;;;;4999024;28;20565;-81
2021/12/23 04:25:07;;;;;;;38.27;22.30;;;;;;;;;;5000758;28;20474;-82
2021/12/23 04:27:33;;;;;;;40.67;24.10;;;;;;;;;;5001587;28;20478;-82
2021/12/23 04:30:00;;;;;;;41.03;25.00;;;;;;;;;;5000835;28;20473;-82
2021/12/23 04:32:26;;;;;;;39.80;25.47;;;;;;;;;;5000531;28;20494;-82
2021/12/23 04:34:52;;;;;;;36.23;22.63;;;;;;;;;;4999511;28;20478;-82
2021/12/23 04:37:20;;;;;;;39.77;25.37;;;;;;;;;;5001291;28;20454;-83
2021/12/23 04:39:46;;;;;;;44.00;26.50;;;;;;;;;;4999261;28;20482;-84
2021/12/23 04:42:12;;;;;;;40.00;25.40;;;;;;;;;;5000485;28;20470;-85
2021/12/23 04:44:38;;;;;;;37.17;22.20;;;;;;;;;;4998599;28;20474;-82
2021/12/23 04:47:05;;;;;;;36.57;22.40;;;;;;;;;;5000328;28;20463;-83
2021/12/23 04:49:31;;;;;;;39.50;23.70;;;;;;;;;;5000851;28;20527;-83
2021/12/23 04:51:58;;;;;;;37.73;22.93;;;;;;;;;;5001612;28;20449;-83
2021/12/23 04:54:25;;;;;;;38.70;22.50;;;;;;;;;;4999388;28;20479;-83
2021/12/23 04:56:52;;;;;;;35.80;23.83;;;;;;;;;;5001124;28;21041;-83
2021/12/23 04:59:18;;;;;;;38.07;23.50;;;;;;;;;;4997472;28;20477;-84
2021/12/23 05:01:44;;;;;;;41.60;24.10;;;;;;;;;;4998674;28;20465;-83
2021/12/23 05:04:11;;;;;;;42.67;24.00;;;;;;;;;;5000285;28;20474;-82
2021/12/23 05:06:37;;;;;;;38.57;24.40;;;;;;;;;;5001223;28;20559;-83
2021/12/23 05:09:03;;;;;;;38.50;23.60;;;;;;;;;;4999996;28;20474;-83
2021/12/23 05:11:31;;;;;;;37.17;23.90;;;;;;;;;;5001521;28;20450;-82
2021/12/23 05:13:57;;;;;;;48.03;25.20;;;;;;;;;;5000181;28;20857;-82
2021/12/23 05:16:27;;;;;;;37.90;22.00;;;;;;;;;;4999720;28;20463;-83
2021/12/23 05:18:53;;;;;;;37.37;23.00;;;;;;;;;;5000077;28;20472;-82
2021/12/23 05:21:19;;;;;;;40.73;24.33;;;;;;;;;;5000864;28;20462;-83
2021/12/23 05:23:46;;;;;;;40.03;22.27;;;;;;;;;;4996460;28;20531;-83
2021/12/23 05:26:12;;;;;;;37.27;22.90;;;;;;;;;;4998413;28;20489;-83
2021/12/23 05:28:40;;;;;;;37.90;22.73;;;;;;;;;;4999468;28;20519;-82
2021/12/23 05:31:06;;;;;;;37.00;23.70;;;;;;;;;;4999548;28;20531;-83
2021/12/23 05:33:33;;;;;;;36.73;22.90;;;;;;;;;;5043754;22;20810;-78
2021/12/23 05:35:59;;;;;;;46.73;23.93;;;;;;;;;;4990649;28;20534;-78
2021/12/23 05:38:26;;;;;;;41.47;24.30;;;;;;;;;;4997070;28;20917;-78
2021/12/23 05:40:52;;;;;;;38.30;24.23;;;;;;;;;;4990840;28;20540;-78
2021/12/23 05:43:18;;;;;;;37.57;20.60;;;;;;;;;;4996353;28;20485;-78
2021/12/23 05:45:46;;;;;;;35.37;22.77;;;;;;;;;;4996165;28;21104;-78
2021/12/23 05:48:12;;;;;;;46.00;23.00;;;;;;;;;;4994090;28;20465;-74
2021/12/23 05:50:38;;;;;;;35.80;22.40;;;;;;;;;;4992727;28;20477;-78
2021/12/23 05:53:05;;;;;;;38.57;23.13;;;;;;;;;;4991627;28;20531;-78
2021/12/23 05:55:31;;;;;;;38.63;22.60;;;;;;;;;;4991627;27;20474;-77
2021/12/23 05:57:57;;;;;;;50.23;23.40;;;;;;;;;;4995170;28;20470;-78
2021/12/23 06:00:24;;;;;;;40.03;24.80;;;;;;;;;;4994012;27;20481;-78
2021/12/23 06:02:52;;;;;;;45.07;25.70;;;;;;;;;;4993286;28;20526;-78
2021/12/23 06:05:18;;;;;;;35.20;23.20;;;;;;;;;;4987446;28;20486;-78
2021/12/23 06:07:45;;;;;;;38.83;22.97;;;;;;;;;;4988708;28;20535;-77
2021/12/23 06:10:12;;;;;;;35.53;23.07;;;;;;;;;;4995554;28;20480;-78
2021/12/23 06:12:38;;;;;;;37.30;23.67;;;;;;;;;;4996921;28;20454;-78
2021/12/23 06:15:05;;;;;;;41.63;25.20;;;;;;;;;;4995109;28;20532;-78
2021/12/23 06:17:32;;;;;;;40.57;24.13;;;;;;;;;;4987165;28;20458;-78
2021/12/23 06:19:59;;;;;;;41.60;23.67;;;;;;;;;;4995303;28;20872;-78
2021/12/23 06:22:26;;;;;;;39.90;23.77;;;;;;;;;;4986798;28;20492;-78
2021/12/23 06:24:52;;;;;;;41.23;24.73;;;;;;;;;;4986442;28;20483;-78
2021/12/23 06:27:19;;;;;;;37.53;21.93;;;;;;;;;;4993854;28;20515;-77
2021/12/23 06:29:46;;;;;;;34.40;21.30;;;;;;;;;;4990727;28;20478;-77
2021/12/23 06:32:12;;;;;;;41.23;23.80;;;;;;;;;;4996516;28;20467;-78
2021/12/23 06:34:38;;;;;;;43.20;25.63;;;;;;;;;;4994328;28;20477;-78
2021/12/23 06:37:06;;;;;;;40.47;25.90;;;;;;;;;;4996866;28;20462;-78
2021/12/23 06:39:32;;;;;;;36.40;23.43;;;;;;;;;;4999349;28;20486;-78
2021/12/23 06:41:59;;;;;;;43.83;23.70;;;;;;;;;;5001066;28;20470;-78
2021/12/23 06:44:25;;;;;;;43.87;25.23;;;;;;;;;;4997639;28;21003;-78
2021/12/23 06:46:51;;;;;;;33.07;21.80;;;;;;;;;;5000147;28;20485;-78
2021/12/23 06:49:17;;;;;;;44.57;27.87;;;;;;;;;;4998588;27;20526;-77
2021/12/23 06:51:44;;;;;;;37.17;23.43;;;;;;;;;;5004431;28;20453;-77
2021/12/23 06:54:14;;;;;;;33.00;23.30;;;;;;;;;;5003502;27;20468;-78
2021/12/23 06:56:40;;;;;;;38.80;24.00;;;;;;;;;;4999177;28;20439;-78
2021/12/23 06:59:07;;;;;;;44.07;29.00;;;;;;;;;;5000446;28;21014;-78
2021/12/23 07:01:33;;;;;;;41.03;24.73;;;;;;;;;;4999012;28;20473;-78
2021/12/23 07:04:06;;;;;;;35.13;24.57;;;;;;;;;;4997942;27;20529;-80
2021/12/23 07:06:34;;;;;;;34.50;23.63;;;;;;;;;;4999919;28;20572;-78
2021/12/23 07:09:03;;;;;;;45.40;25.87;;;;;;;;;;4997440;28;20469;-78
2021/12/23 07:11:30;;;;;;;38.23;24.33;;;;;;;;;;5000276;28;20870;-78
2021/12/23 07:13:56;;;;;;;38.27;22.50;;;;;;;;;;4998990;27;20487;-76
2021/12/23 07:16:23;;;;;;;39.60;24.93;;;;;;;;;;4999621;28;20963;-77
2021/12/23 07:18:49;;;;;;;37.90;24.57;;;;;;;;;;4997841;27;20512;-77
2021/12/23 07:21:16;;;;;;;39.83;25.00;;;;;;;;;;4999387;28;20958;-77
2021/12/23 07:23:42;;;;;;;34.87;22.77;;;;;;;;;;5000492;28;20562;-75
2021/12/23 07:26:08;;;;;;;41.93;26.33;;;;;;;;;;4998476;28;20481;-79
2021/12/23 07:28:36;;;;;;;42.93;24.93;;;;;;;;;;4997693;28;20477;-77
2021/12/23 07:31:02;;;;;;;43.13;24.63;;;;;;;;;;4994056;28;20489;-77
2021/12/23 07:33:28;;;;;;;37.57;23.10;;;;;;;;;;4999546;28;20540;-77
2021/12/23 07:35:55;;;;;;;39.00;23.10;;;;;;;;;;5000098;27;20466;-78
2021/12/23 07:38:21;;;;;;;40.70;25.30;;;;;;;;;;4998446;28;20507;-78
2021/12/23 07:40:47;;;;;;;37.73;23.63;;;;;;;;;;4995388;27;20484;-77
2021/12/23 07:43:31;;;;;;;35.60;23.20;;;;;;;;;;5001076;28;21061;-78
2021/12/23 07:45:59;;;;;;;35.73;23.80;;;;;;;;;;4999907;27;20474;-78
2021/12/23 07:48:25;;;;;;;41.73;25.53;;;;;;;;;;5000719;28;20461;-78
2021/12/23 07:50:52;;;;;;;42.03;24.00;;;;;;;;;;4998802;27;20469;-78
2021/12/23 07:53:18;;;;;;;41.73;24.77;;;;;;;;;;4999010;28;20475;-78
2021/12/23 07:55:44;;;;;;;43.00;24.37;;;;;;;;;;4998079;28;20519;-77
2021/12/23 07:58:10;;;;;;;46.00;26.93;;;;;;;;;;4995259;28;21121;-78
2021/12/23 08:00:37;;;;;;;36.13;23.27;;;;;;;;;;5001912;28;20474;-78
2021/12/23 08:03:04;;;;;;;38.90;23.33;;;;;;;;;;4998351;28;21028;-78
2021/12/23 08:05:31;;;;;;;36.70;24.50;;;;;;;;;;4993673;28;20474;-79
2021/12/23 08:07:57;;;;;;;35.20;23.90;;;;;;;;;;4997057;28;20990;-79
2021/12/23 08:10:24;;;;;;;39.03;23.90;;;;;;;;;;4997579;27;20508;-79
2021/12/23 08:12:50;;;;;;;37.83;24.10;;;;;;;;;;4998330;28;20839;-78
2021/12/23 08:15:16;;;;;;;41.23;26.57;;;;;;;;;;4998043;28;20886;-79
2021/12/23 08:17:43;;;;;;;36.73;22.50;;;;;;;;;;4998062;28;20453;-78
2021/12/23 08:20:11;;;;;;;41.87;23.80;;;;;;;;;;4995994;28;20539;-78
2021/12/23 08:22:37;;;;;;;31.27;23.00;;;;;;;;;;4993697;28;20465;-78
2021/12/23 08:25:04;;;;;;;36.07;23.00;;;;;;;;;;4998314;28;20530;-78
2021/12/23 08:27:31;;;;;;;35.27;22.83;;;;;;;;;;4994508;28;20503;-78
2021/12/23 08:29:57;;;;;;;36.73;24.57;;;;;;;;;;4998215;28;20546;-77
2021/12/23 08:32:23;;;;;;;40.27;24.10;;;;;;;;;;4997855;28;20458;-79
2021/12/23 08:34:50;;;;;;;40.47;24.50;;;;;;;;;;4998559;28;20478;-78
2021/12/23 08:37:17;;;;;;;38.00;22.77;;;;;;;;;;4996176;28;20466;-78
2021/12/23 08:39:44;;;;;;;35.27;22.90;;;;;;;;;;4994680;28;20821;-78
2021/12/23 08:42:11;;;;;;;34.23;24.73;;;;;;;;;;4998500;28;21009;-78
2021/12/23 08:44:40;;;;;;;45.17;30.27;;;;;;;;;;4997668;27;20494;-78
2021/12/23 08:47:06;;;;;;;41.77;28.70;;;;;;;;;;4999407;28;20495;-79
2021/12/23 08:49:33;;;;;;;44.37;26.17;;;;;;;;;;5000453;28;20478;-78
2021/12/23 08:51:59;;;;;;;35.73;23.90;;;;;;;;;;4998567;28;20454;-79
2021/12/23 08:54:26;;;;;;;34.40;23.30;;;;;;;;;;4996777;28;20527;-79
2021/12/23 08:56:53;;;;;;;39.47;24.70;;;;;;;;;;4995183;28;20484;-79
2021/12/23 08:59:19;;;;;;;44.07;25.37;;;;;;;;;;4998734;28;20470;-78
2021/12/23 09:01:46;;;;;;;41.00;26.23;;;;;;;;;;5000410;28;20477;-78
2021/12/23 09:04:12;;;;;;;38.03;23.73;;;;;;;;;;4995574;27;20474;-79
2021/12/23 09:06:39;;;;;;;40.57;23.37;;;;;;;;;;4997852;28;20490;-78
2021/12/23 09:09:06;;;;;;;36.50;24.97;;;;;;;;;;4998938;28;20478;-78
2021/12/23 09:11:34;;;;;;;58.37;46.33;;;;;;;;;;4999326;28;20464;-78
2021/12/23 09:14:00;;;;;;;47.70;32.93;;;;;;;;;;4995978;27;20476;-78
2021/12/23 09:16:26;;;;;;;53.43;41.80;;;;;;;;;;4997496;28;20858;-79
2021/12/23 09:18:53;;;;;;;38.30;27.40;;;;;;;;;;4996751;27;20441;-79
2021/12/23 09:21:19;;;;;;;39.97;25.50;;;;;;;;;;4996640;28;20540;-78
2021/12/23 09:23:45;;;;;;;41.67;25.30;;;;;;;;;;4996078;27;20467;-79
2021/12/23 09:26:12;;;;;;;31.73;22.50;;;;;;;;;;4997151;28;20700;-79
2021/12/23 09:28:53;;;;;;;343.37;264.87;;;;;;;;;;4997397;27;20454;-78
2021/12/23 09:34:03;;;;;;;38.13;25.63;;;;;;;;;;4999279;28;20469;-78
2021/12/23 09:36:30;;;;;;;35.53;23.73;;;;;;;;;;4998867;28;20512;-79
2021/12/23 09:38:56;;;;;;;37.17;24.03;;;;;;;;;;4993270;28;20471;-79
2021/12/23 09:41:23;;;;;;;36.57;23.50;;;;;;;;;;4998334;28;20867;-78
2021/12/23 09:43:51;;;;;;;37.73;24.37;;;;;;;;;;4998332;28;20504;-78
2021/12/23 09:46:19;;;;;;;37.47;25.00;;;;;;;;;;4998714;28;20565;-79
2021/12/23 09:48:46;;;;;;;39.27;25.73;;;;;;;;;;4996124;28;20818;-78
2021/12/23 09:51:14;;;;;;;44.30;25.20;;;;;;;;;;4997504;28;20504;-78
2021/12/23 09:53:42;;;;;;;41.13;23.73;;;;;;;;;;4996402;27;20843;-77
2021/12/23 09:56:09;;;;;;;43.07;27.00;;;;;;;;;;4994272;28;20500;-79
2021/12/23 09:58:35;;;;;;;43.27;25.87;;;;;;;;;;4994701;28;20454;-79
2021/12/23 10:01:04;;;;;;;108.83;96.20;;;;;;;;;;4995942;28;20524;-78
2021/12/23 10:03:30;;;;;;;36.77;26.13;;;;;;;;;;4997505;28;20478;-79
2021/12/23 10:05:58;;;;;;;45.37;28.90;;;;;;;;;;4995377;27;20474;-78
2021/12/23 10:08:25;;;;;;;46.70;28.43;;;;;;;;;;4997807;28;20462;-79
2021/12/23 10:10:56;;;;;;;43.17;27.47;;;;;;;;;;4999093;28;20470;-79
2021/12/23 10:33:17;;;;;;;38.73;26.57;;;;;;;;;;4999070;28;20801;-78
2021/12/23 10:38:30;;;;;;;46.03;32.60;;;;;;;;;;4998566;28;20421;-78
2021/12/23 10:40:58;;;;;;;42.60;27.03;;;;;;;;;;4995683;27;20473;-79
2021/12/23 10:43:26;;;;;;;40.37;27.67;;;;;;;;;;4997686;28;20493;-79
2021/12/23 10:45:56;;;;;;;41.57;26.67;;;;;;;;;;4997662;28;21214;-79
2021/12/23 10:48:25;;;;;;;47.90;30.47;;;;;;;;;;4997643;28;20486;-79
2021/12/23 10:50:57;;;;;;;45.07;26.90;;;;;;;;;;4994716;27;20536;-79
2021/12/23 10:53:39;;;;;;;40.50;28.07;;;;;;;;;;4999120;28;20496;-78
2021/12/23 10:59:05;;;;;;;42.17;30.37;;;;;;;;;;4995037;27;20566;-79
2021/12/23 11:01:31;;;;;;;43.27;26.40;;;;;;;;;;4997773;28;20461;-79
2021/12/23 11:04:03;;;;;;;42.60;26.77;;;;;;;;;;5001235;27;20485;-79
2021/12/23 11:06:33;;;;;;;42.20;27.10;;;;;;;;;;4998638;28;20497;-78
2021/12/23 11:09:14;;;;;;;45.27;26.10;;;;;;;;;;4998765;27;20470;-79
2021/12/23 11:12:10;;;;;;;47.00;25.20;;;;;;;;;;4996773;28;21034;-79
2021/12/23 11:29:01;;;;;;;48.33;27.37;;;;;;;;;;5002375;28;20492;-78
2021/12/23 11:39:52;;;;;;;65.27;29.20;;;;;;;;;;5082215;27;20536;-84
2021/12/23 11:42:28;;;;;;;44.00;26.77;;;;;;;;;;5087094;28;20520;-84
2021/12/23 11:44:54;;;;;;;44.63;27.87;;;;;;;;;;5086491;28;20474;-84
2021/12/23 11:47:20;;;;;;;50.03;27.33;;;;;;;;;;5085315;28;21133;-83
2021/12/23 11:49:48;;;;;;;41.33;25.40;;;;;;;;;;5087147;28;20532;-84
2021/12/23 11:52:16;;;;;;;43.70;27.13;;;;;;;;;;5084190;28;20462;-83
2021/12/23 11:54:44;;;;;;;49.10;27.77;;;;;;;;;;5084566;28;20476;-83
2021/12/23 11:57:13;;;;;;;44.80;26.83;;;;;;;;;;5086369;28;20462;-83
2021/12/23 11:59:41;;;;;;;39.67;25.70;;;;;;;;;;5085841;28;20478;-84
2021/12/23 12:02:12;;;;;;;43.83;27.63;;;;;;;;;;5086756;28;20443;-84
2021/12/23 12:04:38;;;;;;;43.60;26.10;;;;;;;;;;5086679;28;20467;-83
2021/12/23 12:07:12;;;;;;;46.70;29.70;;;;;;;;;;5085071;28;20536;-83
2021/12/23 12:09:53;;;;;;;42.53;27.30;;;;;;;;;;5083527;28;20528;-84
2021/12/23 12:12:19;;;;;;;51.07;30.13;;;;;;;;;;5086957;28;21238;-83
2021/12/23 12:14:47;;;;;;;44.50;29.47;;;;;;;;;;5085033;28;20536;-83
2021/12/23 12:17:34;;;;;;;51.60;28.70;;;;;;;;;;5085496;28;20442;-84
2021/12/23 12:20:02;;;;;;;49.13;29.90;;;;;;;;;;5085692;28;20497;-83
2021/12/23 12:22:43;;;;;;;51.60;29.60;;;;;;;;;;5084523;28;20979;-84
2021/12/23 12:25:10;;;;;;;55.63;40.20;;;;;;;;;;5084859;28;20462;-83
2021/12/23 12:27:38;;;;;;;51.17;28.30;;;;;;;;;;5086175;28;20474;-84
2021/12/23 12:30:06;;;;;;;125.20;69.90;;;;;;;;;;5086080;28;20534;-83
2021/12/23 12:32:36;;;;;;;56.00;33.70;;;;;;;;;;5085841;28;20450;-83
2021/12/23 12:35:10;;;;;;;59.27;33.13;;;;;;;;;;5085369;28;21065;-84
2021/12/23 12:37:41;;;;;;;53.63;30.87;;;;;;;;;;5086543;28;20959;-83
2021/12/23 12:40:08;;;;;;;50.10;31.13;;;;;;;;;;5085923;28;20534;-83
2021/12/23 12:42:39;;;;;;;51.33;28.80;;;;;;;;;;5084024;28;20451;-83
2021/12/23 12:45:12;;;;;;;62.13;30.40;;;;;;;;;;5085003;28;20904;-84
2021/12/23 12:47:47;;;;;;;53.60;32.23;;;;;;;;;;5086291;28;20569;-84
2021/12/23 12:50:15;;;;;;;46.50;27.67;;;;;;;;;;5085456;28;20466;-83
2021/12/23 12:52:43;;;;;;;51.90;32.17;;;;;;;;;;5084400;28;20818;-83
2021/12/23 12:55:11;;;;;;;50.40;30.03;;;;;;;;;;5084317;28;20568;-84
2021/12/23 12:57:41;;;;;;;50.87;30.13;;;;;;;;;;5083227;28;21035;-83
2021/12/23 13:00:19;;;;;;;53.73;30.87;;;;;;;;;;5085200;28;20991;-83
2021/12/23 13:02:49;;;;;;;61.10;34.33;;;;;;;;;;5086279;28;20455;-83
2021/12/23 13:05:15;;;;;;;61.40;33.13;;;;;;;;;;5083661;28;20523;-83
2021/12/23 13:07:42;;;;;;;57.50;31.60;;;;;;;;;;5085027;28;20556;-83
2021/12/23 13:10:13;;;;;;;55.37;30.03;;;;;;;;;;5083294;28;20477;-83
2021/12/23 13:12:45;;;;;;;54.87;32.90;;;;;;;;;;5082188;28;20979;-83
2021/12/23 13:15:20;;;;;;;58.27;32.47;;;;;;;;;;5083443;28;21073;-83
2021/12/23 13:17:47;;;;;;;50.53;31.63;;;;;;;;;;5086567;28;20470;-83
2021/12/23 13:20:14;;;;;;;55.20;33.07;;;;;;;;;;5083800;28;20482;-83
2021/12/23 13:22:42;;;;;;;67.80;37.70;;;;;;;;;;5085511;28;20449;-83
2021/12/23 13:25:09;;;;;;;62.17;35.90;;;;;;;;;;5085432;28;20458;-83
2021/12/23 13:27:38;;;;;;;62.53;35.23;;;;;;;;;;5086126;28;20490;-83
2021/12/23 13:30:06;;;;;;;68.60;36.77;;;;;;;;;;5082817;28;20462;-83
2021/12/23 13:32:33;;;;;;;69.80;35.03;;;;;;;;;;5084981;28;20448;-83
2021/12/23 13:35:07;;;;;;;61.23;36.50;;;;;;;;;;5085001;28;20507;-84
2021/12/23 13:37:34;;;;;;;59.07;37.37;;;;;;;;;;5083956;28;20442;-83
2021/12/23 13:40:00;;;;;;;61.53;35.27;;;;;;;;;;5084610;28;20463;-84
2021/12/23 13:42:26;;;;;;;60.07;35.17;;;;;;;;;;5086217;28;20446;-83
2021/12/23 13:44:55;;;;;;;68.50;36.83;;;;;;;;;;5083946;28;20483;-83
2021/12/23 13:47:22;;;;;;;64.57;34.00;;;;;;;;;;5081441;28;20487;-84
2021/12/23 13:49:50;;;;;;;61.40;34.17;;;;;;;;;;5083806;28;20466;-84
2021/12/23 13:52:20;;;;;;;65.17;36.87;;;;;;;;;;5084789;28;20446;-84
2021/12/23 13:54:46;;;;;;;64.67;35.57;;;;;;;;;;5083856;28;20521;-84
2021/12/23 13:57:14;;;;;;;68.00;37.60;;;;;;;;;;5085874;28;20465;-84
2021/12/23 13:59:41;;;;;;;67.93;35.53;;;;;;;;;;5084687;28;20466;-83
2021/12/23 14:02:08;;;;;;;64.40;35.80;;;;;;;;;;5084407;28;20466;-84
2021/12/23 14:04:43;;;;;;;67.13;37.03;;;;;;;;;;5082237;28;20831;-84
2021/12/23 14:07:12;;;;;;;59.47;34.37;;;;;;;;;;5084494;28;20465;-84
2021/12/23 14:09:39;;;;;;;57.30;32.40;;;;;;;;;;5084352;28;20895;-84
2021/12/23 14:12:06;;;;;;;60.93;35.47;;;;;;;;;;5085077;28;20476;-84
2021/12/23 14:14:32;;;;;;;53.83;33.83;;;;;;;;;;5082499;28;20520;-84
2021/12/23 14:16:59;;;;;;;60.90;35.17;;;;;;;;;;5083707;28;20477;-84
2021/12/23 14:19:39;;;;;;;82.90;50.10;;;;;;;;;;5084616;28;21002;-84
2021/12/23 14:24:52;;;;;;;85.10;52.77;;;;;;;;;;5084201;28;20515;-84
2021/12/23 14:27:18;;;;;;;63.90;40.73;;;;;;;;;;5083340;28;20967;-84
2021/12/23 14:29:47;;;;;;;75.17;40.33;;;;;;;;;;5084581;27;20477;-84
2021/12/23 14:32:14;;;;;;;74.47;40.83;;;;;;;;;;5084264;28;20596;-84
2021/12/23 14:34:40;;;;;;;77.70;41.10;;;;;;;;;;5084119;28;20462;-84
2021/12/23 14:37:08;;;;;;;77.30;35.10;;;;;;;;;;5083298;28;20486;-84
2021/12/23 14:39:38;;;;;;;62.60;39.17;;;;;;;;;;5083801;28;20470;-84
2021/12/23 14:42:11;;;;;;;70.63;38.33;;;;;;;;;;5085922;28;21035;-84
2021/12/23 14:44:39;;;;;;;70.20;37.50;;;;;;;;;;5084090;28;20470;-84
2021/12/23 14:47:13;;;;;;;64.60;35.57;;;;;;;;;;5084902;28;20528;-84
2021/12/23 14:49:59;;;;;;;70.93;36.83;;;;;;;;;;5082490;28;20462;-84
2021/12/23 14:52:26;;;;;;;64.80;36.63;;;;;;;;;;5084290;28;20463;-84
2021/12/23 14:54:55;;;;;;;59.70;34.70;;;;;;;;;;5081956;28;20516;-84
2021/12/23 14:57:23;;;;;;;63.37;35.97;;;;;;;;;;5085392;28;20471;-82
2021/12/23 14:59:51;;;;;;;70.80;34.80;;;;;;;;;;5080717;28;20481;-84
2021/12/23 15:02:19;;;;;;;70.80;36.53;;;;;;;;;;5089881;28;20507;-84
2021/12/23 15:05:06;;;;;;;74.87;39.33;;;;;;;;;;5088283;28;20534;-84
2021/12/23 15:07:45;;;;;;;66.00;37.07;;;;;;;;;;5087592;28;22631;-84
2021/12/23 15:10:13;;;;;;;66.97;39.43;;;;;;;;;;5080930;28;20897;-83
2021/12/23 15:12:39;;;;;;;72.20;40.67;;;;;;;;;;5085508;28;20507;-84
2021/12/23 15:15:07;;;;;;;69.33;37.70;;;;;;;;;;5087983;28;20477;-85
2021/12/23 15:17:41;;;;;;;66.90;37.23;;;;;;;;;;5082912;28;20480;-84